Time;durP1;ratioP1;P1;durP2;ratioP2;P2;SDS_P1;SDS_P2;PMS_P1;PMS_P2;Temp;Humidity;BMP_temperature;BMP_pressure;BME280_temperature;BME280_humidity;BME280_pressure;Samples;Min_cycle;Max_cycle;Signal;HPM_P1;HPM_P2
2023/12/25 00:00:56;;;;;;;31.30;14.43;;;;;;;;;;6323205;28;20047;-73
2023/12/25 00:03:58;;;;;;;30.10;13.68;;;;;;;;;;6326712;28;20185;-73
2023/12/25 00:07:01;;;;;;;19.13;10.35;;;;;;;;;;6326624;28;20113;-73
2023/12/25 00:10:03;;;;;;;23.88;14.07;;;;;;;;;;6303251;28;20048;-72
2023/12/25 00:13:05;;;;;;;20.98;10.02;;;;;;;;;;6302951;28;20036;-73
2023/12/25 00:16:07;;;;;;;19.77;10.30;;;;;;;;;;6294996;28;20044;-73
2023/12/25 00:19:09;;;;;;;15.38;8.30;;;;;;;;;;6323387;28;20044;-72
2023/12/25 00:22:11;;;;;;;17.58;7.40;;;;;;;;;;6323649;28;20044;-73
2023/12/25 00:25:14;;;;;;;16.17;6.57;;;;;;;;;;6305805;28;20078;-73
2023/12/25 00:28:16;;;;;;;11.93;6.65;;;;;;;;;;6303858;28;20734;-72
2023/12/25 00:31:18;;;;;;;16.33;7.43;;;;;;;;;;6318128;28;20050;-72
2023/12/25 00:34:20;;;;;;;13.05;6.95;;;;;;;;;;6278959;28;20051;-72
2023/12/25 00:37:22;;;;;;;10.20;6.00;;;;;;;;;;6297456;28;20048;-73
2023/12/25 00:40:24;;;;;;;12.23;7.00;;;;;;;;;;6323527;28;20047;-73
2023/12/25 00:43:26;;;;;;;11.85;7.93;;;;;;;;;;6291947;28;20037;-73
2023/12/25 00:46:30;;;;;;;11.75;5.85;;;;;;;;;;6320177;28;20047;-72
2023/12/25 00:49:33;;;;;;;12.10;6.25;;;;;;;;;;6314840;28;20051;-73
2023/12/25 00:52:35;;;;;;;10.02;6.65;;;;;;;;;;6283786;28;20855;-72
2023/12/25 00:55:38;;;;;;;12.57;7.15;;;;;;;;;;6315037;28;20064;-73
2023/12/25 00:58:40;;;;;;;10.57;6.07;;;;;;;;;;6294762;28;20089;-72
2023/12/25 01:01:42;;;;;;;18.25;6.05;;;;;;;;;;6296249;28;20054;-72
2023/12/25 01:04:44;;;;;;;11.43;6.18;;;;;;;;;;6317069;28;20094;-73
2023/12/25 01:07:47;;;;;;;10.95;5.13;;;;;;;;;;6328603;27;20036;-73
2023/12/25 01:10:49;;;;;;;8.27;4.47;;;;;;;;;;6311929;28;20652;-73
2023/12/25 01:13:51;;;;;;;10.10;6.10;;;;;;;;;;6300360;28;20086;-73
2023/12/25 01:16:53;;;;;;;12.00;6.20;;;;;;;;;;6285296;28;20044;-74
2023/12/25 01:19:55;;;;;;;8.50;4.72;;;;;;;;;;6302256;28;20071;-72
2023/12/25 01:22:57;;;;;;;11.18;6.40;;;;;;;;;;6288782;28;20543;-72
2023/12/25 01:25:59;;;;;;;10.75;4.97;;;;;;;;;;6325269;28;20058;-73
2023/12/25 01:29:01;;;;;;;9.35;5.75;;;;;;;;;;6317767;28;20154;-72
2023/12/25 01:32:03;;;;;;;11.30;5.13;;;;;;;;;;6320076;28;20051;-72
2023/12/25 01:35:06;;;;;;;14.45;4.93;;;;;;;;;;6315103;28;20055;-72
2023/12/25 01:38:08;;;;;;;15.43;6.32;;;;;;;;;;6318230;28;20043;-73
2023/12/25 01:41:10;;;;;;;9.32;4.75;;;;;;;;;;6318782;28;20817;-73
2023/12/25 01:44:20;;;;;;;11.07;6.78;;;;;;;;;;6301812;28;20067;-72
2023/12/25 01:47:27;;;;;;;16.75;5.43;;;;;;;;;;6316120;28;20040;-73
2023/12/25 01:50:30;;;;;;;10.75;4.82;;;;;;;;;;6300368;28;20048;-72
2023/12/25 01:53:33;;;;;;;14.23;6.45;;;;;;;;;;6295189;28;20158;-73
2023/12/25 01:56:35;;;;;;;38.28;16.05;;;;;;;;;;6285023;28;20537;-72
2023/12/25 01:59:38;;;;;;;40.47;21.70;;;;;;;;;;6288699;28;20864;-72
2023/12/25 02:02:40;;;;;;;13.75;8.40;;;;;;;;;;6285744;28;20526;-72
2023/12/25 02:05:43;;;;;;;22.10;12.43;;;;;;;;;;6307134;28;20055;-72
2023/12/25 02:08:45;;;;;;;15.20;7.20;;;;;;;;;;6293954;28;20047;-72
2023/12/25 02:11:47;;;;;;;8.00;6.13;;;;;;;;;;6301280;28;20660;-73
2023/12/25 02:14:50;;;;;;;11.50;5.03;;;;;;;;;;6294273;28;20079;-72
2023/12/25 02:17:53;;;;;;;11.45;5.38;;;;;;;;;;6306160;28;20051;-73
2023/12/25 02:20:56;;;;;;;10.40;5.43;;;;;;;;;;6278396;28;20082;-73
2023/12/25 02:24:00;;;;;;;7.78;5.25;;;;;;;;;;6299214;28;20040;-73
2023/12/25 02:27:02;;;;;;;10.10;5.10;;;;;;;;;;6317896;28;20040;-73
2023/12/25 02:30:05;;;;;;;8.85;4.90;;;;;;;;;;6294207;28;20151;-72
2023/12/25 02:33:07;;;;;;;17.23;5.07;;;;;;;;;;6285777;28;20130;-73
2023/12/25 02:36:10;;;;;;;6.80;3.55;;;;;;;;;;6296179;28;20439;-73
2023/12/25 02:39:12;;;;;;;8.90;4.65;;;;;;;;;;6286097;28;20123;-73
2023/12/25 02:42:14;;;;;;;8.93;6.95;;;;;;;;;;6278579;28;20066;-73
2023/12/25 02:45:16;;;;;;;6.30;4.53;;;;;;;;;;6277735;28;20530;-73
2023/12/25 02:48:19;;;;;;;9.25;5.40;;;;;;;;;;6282192;28;20078;-72
2023/12/25 02:51:21;;;;;;;10.30;5.78;;;;;;;;;;6281407;28;20438;-73
2023/12/25 02:54:24;;;;;;;6.75;4.28;;;;;;;;;;6300518;28;20051;-73
2023/12/25 02:57:25;;;;;;;12.35;7.28;;;;;;;;;;6293984;28;20059;-73
2023/12/25 03:00:27;;;;;;;7.25;4.63;;;;;;;;;;6281363;28;20047;-73
2023/12/25 03:03:30;;;;;;;11.57;5.78;;;;;;;;;;6289600;28;20039;-73
2023/12/25 03:06:32;;;;;;;10.38;5.35;;;;;;;;;;6297541;28;20047;-72
2023/12/25 03:09:34;;;;;;;9.57;5.15;;;;;;;;;;6257004;28;20056;-72
2023/12/25 03:12:37;;;;;;;9.32;5.75;;;;;;;;;;6315591;28;20438;-72
2023/12/25 03:15:39;;;;;;;14.38;5.43;;;;;;;;;;6312014;28;20052;-72
2023/12/25 03:18:42;;;;;;;7.95;5.00;;;;;;;;;;6292332;28;20044;-72
2023/12/25 03:21:44;;;;;;;8.27;4.63;;;;;;;;;;6312307;28;20101;-72
2023/12/25 03:24:46;;;;;;;8.90;4.75;;;;;;;;;;6309226;28;20126;-72
2023/12/25 03:27:49;;;;;;;11.70;5.88;;;;;;;;;;6290877;28;20190;-72
2023/12/25 03:30:51;;;;;;;10.05;4.97;;;;;;;;;;6314535;28;20722;-73
2023/12/25 03:33:54;;;;;;;9.35;6.40;;;;;;;;;;6288999;28;20051;-73
2023/12/25 03:36:56;;;;;;;7.95;5.00;;;;;;;;;;6283804;28;20102;-72
2023/12/25 03:39:58;;;;;;;7.60;4.63;;;;;;;;;;6317025;28;20532;-73
2023/12/25 03:43:00;;;;;;;11.95;5.45;;;;;;;;;;6297911;28;20547;-72
2023/12/25 03:46:02;;;;;;;10.80;6.78;;;;;;;;;;6279703;28;20582;-73
2023/12/25 03:49:04;;;;;;;12.80;6.32;;;;;;;;;;6325357;28;20048;-73
2023/12/25 03:52:07;;;;;;;10.30;5.32;;;;;;;;;;6314286;28;20124;-72
2023/12/25 03:55:09;;;;;;;11.63;5.47;;;;;;;;;;6302799;28;20189;-71
2023/12/25 03:58:11;;;;;;;8.18;5.20;;;;;;;;;;6290412;28;20036;-72
2023/12/25 04:01:13;;;;;;;7.55;5.22;;;;;;;;;;6263863;28;20051;-72
2023/12/25 04:04:15;;;;;;;12.05;6.80;;;;;;;;;;6285871;28;20043;-72
2023/12/25 04:07:17;;;;;;;11.00;6.30;;;;;;;;;;6307560;28;20155;-71
2023/12/25 04:10:20;;;;;;;28.95;11.30;;;;;;;;;;6308129;28;20161;-71
2023/12/25 04:13:23;;;;;;;18.15;7.57;;;;;;;;;;6300238;28;20056;-72
2023/12/25 04:16:27;;;;;;;14.05;6.40;;;;;;;;;;6284340;28;20055;-72
2023/12/25 04:19:29;;;;;;;13.10;5.80;;;;;;;;;;6299748;28;20051;-72
2023/12/25 04:22:32;;;;;;;12.35;5.03;;;;;;;;;;6320362;28;20044;-72
2023/12/25 04:25:34;;;;;;;10.45;5.60;;;;;;;;;;6311718;28;20155;-72
2023/12/25 04:28:36;;;;;;;25.67;10.65;;;;;;;;;;6301678;28;20044;-72
2023/12/25 04:31:38;;;;;;;16.65;7.18;;;;;;;;;;6274756;28;20533;-72
2023/12/25 04:34:41;;;;;;;18.00;8.85;;;;;;;;;;6304822;28;20044;-72
2023/12/25 04:37:43;;;;;;;12.32;7.55;;;;;;;;;;6299386;28;20035;-71
2023/12/25 04:40:46;;;;;;;13.52;7.00;;;;;;;;;;6298486;28;20055;-71
2023/12/25 04:43:50;;;;;;;9.50;5.35;;;;;;;;;;6281074;28;20903;-72
2023/12/25 04:46:53;;;;;;;10.23;6.50;;;;;;;;;;6305405;28;20469;-71
2023/12/25 04:49:55;;;;;;;11.90;5.93;;;;;;;;;;6294840;28;20059;-71
2023/12/25 04:52:57;;;;;;;8.82;6.05;;;;;;;;;;6294189;28;20043;-72
2023/12/25 04:55:59;;;;;;;7.50;5.03;;;;;;;;;;6297331;28;20092;-73
2023/12/25 04:59:01;;;;;;;7.93;5.35;;;;;;;;;;6303352;28;20617;-71
2023/12/25 05:02:03;;;;;;;12.85;6.60;;;;;;;;;;6317741;28;20553;-72
2023/12/25 05:05:06;;;;;;;70.30;32.75;;;;;;;;;;6313692;28;20048;-72
2023/12/25 05:08:08;;;;;;;21.92;12.20;;;;;;;;;;6299518;28;20048;-74
2023/12/25 05:11:10;;;;;;;21.85;11.75;;;;;;;;;;6308926;28;20572;-72
2023/12/25 05:14:12;;;;;;;16.77;8.70;;;;;;;;;;6315168;28;20670;-72
2023/12/25 05:17:14;;;;;;;16.42;9.55;;;;;;;;;;6317216;28;20036;-72
2023/12/25 05:20:16;;;;;;;19.08;8.65;;;;;;;;;;6296036;28;20048;-73
2023/12/25 05:23:18;;;;;;;13.18;7.22;;;;;;;;;;6295304;28;20047;-72
2023/12/25 05:26:21;;;;;;;16.38;6.65;;;;;;;;;;6293890;28;20142;-72
2023/12/25 05:29:24;;;;;;;14.05;8.25;;;;;;;;;;6289137;28;20442;-72
2023/12/25 05:32:28;;;;;;;8.82;6.47;;;;;;;;;;6316747;28;20074;-72
2023/12/25 05:35:30;;;;;;;12.70;7.07;;;;;;;;;;6300357;28;20044;-72
2023/12/25 05:38:32;;;;;;;13.20;7.45;;;;;;;;;;6280110;28;20055;-72
2023/12/25 05:41:35;;;;;;;12.63;7.13;;;;;;;;;;6280982;28;20051;-72
2023/12/25 05:44:37;;;;;;;13.27;8.73;;;;;;;;;;6301363;28;20043;-72
2023/12/25 05:47:39;;;;;;;17.38;9.05;;;;;;;;;;6322449;28;20811;-72
2023/12/25 05:50:42;;;;;;;16.23;8.93;;;;;;;;;;6280143;28;20036;-72
2023/12/25 05:53:44;;;;;;;8.32;5.32;;;;;;;;;;6298990;28;20217;-72
2023/12/25 05:56:47;;;;;;;13.25;5.40;;;;;;;;;;6302863;28;20144;-72
2023/12/25 05:59:49;;;;;;;12.10;6.78;;;;;;;;;;6300573;28;20231;-72
2023/12/25 06:02:51;;;;;;;11.10;6.40;;;;;;;;;;6298746;28;20555;-73
2023/12/25 06:05:53;;;;;;;11.27;7.35;;;;;;;;;;6295340;28;20048;-72
2023/12/25 06:08:55;;;;;;;15.73;7.60;;;;;;;;;;6313450;28;20048;-73
2023/12/25 06:11:59;;;;;;;16.40;8.30;;;;;;;;;;6296074;28;21003;-73
2023/12/25 06:15:05;;;;;;;19.13;11.93;;;;;;;;;;6283334;28;20083;-74
2023/12/25 06:18:08;;;;;;;15.00;6.90;;;;;;;;;;6305865;28;20044;-74
2023/12/25 06:21:14;;;;;;;17.95;10.90;;;;;;;;;;6299101;28;20047;-74
2023/12/25 06:24:16;;;;;;;;;;;;;;;;;;6306532;28;20028;-74
2023/12/25 06:27:18;;;;;;;14.45;9.55;;;;;;;;;;6296796;28;19924;-73
2023/12/25 06:30:20;;;;;;;19.83;10.77;;;;;;;;;;6314882;28;20044;-74
2023/12/25 06:33:22;;;;;;;17.30;10.18;;;;;;;;;;6317280;28;20043;-74
2023/12/25 06:36:25;;;;;;;21.75;11.80;;;;;;;;;;6311253;28;20070;-74
2023/12/25 06:39:27;;;;;;;15.82;12.13;;;;;;;;;;6334431;27;20043;-73
2023/12/25 06:42:30;;;;;;;21.60;11.85;;;;;;;;;;6316857;28;20087;-73
2023/12/25 06:45:32;;;;;;;16.55;11.73;;;;;;;;;;6296285;28;20051;-73
2023/12/25 06:48:34;;;;;;;18.90;10.85;;;;;;;;;;6307567;28;20040;-72
2023/12/25 06:51:36;;;;;;;15.60;7.43;;;;;;;;;;6296767;28;20040;-73
2023/12/25 06:54:39;;;;;;;16.13;10.48;;;;;;;;;;6314086;28;20032;-73
2023/12/25 06:57:41;;;;;;;24.23;11.55;;;;;;;;;;6299624;28;20204;-73
2023/12/25 07:00:44;;;;;;;21.17;11.75;;;;;;;;;;6320809;28;20501;-72
2023/12/25 07:03:46;;;;;;;17.33;10.90;;;;;;;;;;6300361;28;20043;-73
2023/12/25 07:06:50;;;;;;;18.30;10.35;;;;;;;;;;6279665;28;20047;-72
2023/12/25 07:09:52;;;;;;;16.13;12.13;;;;;;;;;;6297721;28;20120;-73
2023/12/25 07:12:54;;;;;;;23.67;10.40;;;;;;;;;;6314729;28;20040;-73
2023/12/25 07:15:58;;;;;;;15.85;7.43;;;;;;;;;;6288434;28;20047;-73
2023/12/25 07:19:00;;;;;;;10.75;7.10;;;;;;;;;;6318833;28;20051;-73
2023/12/25 07:22:04;;;;;;;10.02;6.28;;;;;;;;;;6294381;28;20039;-73
2023/12/25 07:25:06;;;;;;;9.90;5.68;;;;;;;;;;6281491;28;20040;-72
2023/12/25 07:28:08;;;;;;;12.45;6.90;;;;;;;;;;6316083;28;20062;-72
2023/12/25 07:31:11;;;;;;;9.30;4.72;;;;;;;;;;6315342;28;20593;-73
2023/12/25 07:34:13;;;;;;;12.43;5.45;;;;;;;;;;6284891;28;20048;-73
2023/12/25 07:37:15;;;;;;;6.70;4.03;;;;;;;;;;6300908;28;20416;-73
2023/12/25 07:40:18;;;;;;;7.05;3.20;;;;;;;;;;6257779;28;20052;-72
2023/12/25 07:43:20;;;;;;;8.30;3.97;;;;;;;;;;6315100;28;20677;-72
2023/12/25 07:46:22;;;;;;;11.45;5.22;;;;;;;;;;6293330;28;20048;-72
2023/12/25 07:49:24;;;;;;;10.02;5.80;;;;;;;;;;6314110;28;20126;-72
2023/12/25 07:52:26;;;;;;;12.52;5.78;;;;;;;;;;6315231;28;20052;-72
2023/12/25 07:55:30;;;;;;;15.18;7.53;;;;;;;;;;6313108;28;20293;-73
2023/12/25 07:58:36;;;;;;;17.20;8.43;;;;;;;;;;6293579;28;20051;-73
2023/12/25 08:01:39;;;;;;;16.27;9.25;;;;;;;;;;6297067;28;20134;-72
2023/12/25 08:04:44;;;;;;;13.13;6.97;;;;;;;;;;6280321;28;20048;-72
2023/12/25 08:07:46;;;;;;;;;;;;;;;;;;6321055;28;20047;-73
2023/12/25 08:10:48;;;;;;;15.43;8.38;;;;;;;;;;6281473;28;19930;-73
2023/12/25 08:13:51;;;;;;;12.93;8.85;;;;;;;;;;6286134;28;20044;-72
2023/12/25 08:16:53;;;;;;;10.60;5.57;;;;;;;;;;6309625;28;20051;-73
2023/12/25 08:19:56;;;;;;;11.32;6.03;;;;;;;;;;6307959;28;20097;-72
2023/12/25 08:22:58;;;;;;;20.35;11.07;;;;;;;;;;6310903;28;20119;-72
2023/12/25 08:26:00;;;;;;;34.05;16.67;;;;;;;;;;6308478;28;20567;-72
2023/12/25 08:29:02;;;;;;;17.38;8.68;;;;;;;;;;6327677;27;20074;-73
2023/12/25 08:32:05;;;;;;;19.92;12.55;;;;;;;;;;6299196;28;20048;-73
2023/12/25 08:35:07;;;;;;;14.25;7.82;;;;;;;;;;6319222;28;20043;-72
2023/12/25 08:38:09;;;;;;;18.15;11.57;;;;;;;;;;6289567;28;20043;-72
2023/12/25 08:41:11;;;;;;;7.65;3.17;;;;;;;;;;6279441;28;20753;-72
2023/12/25 08:44:13;;;;;;;18.23;8.88;;;;;;;;;;6317039;28;20044;-73
2023/12/25 08:47:16;;;;;;;7.50;5.40;;;;;;;;;;6305896;28;20055;-73
2023/12/25 08:50:19;;;;;;;8.07;4.97;;;;;;;;;;6311088;28;20150;-73
2023/12/25 08:53:23;;;;;;;12.93;5.40;;;;;;;;;;6279393;28;20101;-73
2023/12/25 08:56:25;;;;;;;11.23;4.85;;;;;;;;;;6325755;28;20194;-73
2023/12/25 08:59:28;;;;;;;18.17;10.68;;;;;;;;;;6292447;28;20499;-73
2023/12/25 09:02:30;;;;;;;11.95;6.38;;;;;;;;;;6322498;28;20467;-73
2023/12/25 09:05:32;;;;;;;13.68;4.70;;;;;;;;;;6277710;28;20048;-73
2023/12/25 09:08:35;;;;;;;16.83;9.30;;;;;;;;;;6264596;28;20052;-73
2023/12/25 09:11:37;;;;;;;8.60;4.95;;;;;;;;;;6288780;28;20591;-73
2023/12/25 09:14:39;;;;;;;13.18;8.50;;;;;;;;;;6284187;28;20043;-73
2023/12/25 09:17:42;;;;;;;7.57;4.55;;;;;;;;;;6279645;28;20521;-74
2023/12/25 09:20:45;;;;;;;11.77;5.55;;;;;;;;;;6295005;28;20127;-74
2023/12/25 09:23:48;;;;;;;7.80;4.53;;;;;;;;;;6295639;28;20058;-73
2023/12/25 09:26:52;;;;;;;14.23;7.97;;;;;;;;;;6287922;28;20173;-78
2023/12/25 09:29:54;;;;;;;9.43;4.45;;;;;;;;;;6327083;27;20533;-79
2023/12/25 09:32:57;;;;;;;14.68;6.43;;;;;;;;;;6283974;28;20353;-77
2023/12/25 09:36:00;;;;;;;15.02;5.90;;;;;;;;;;6295482;28;20067;-78
2023/12/25 09:39:03;;;;;;;15.43;7.82;;;;;;;;;;6284803;28;20040;-78
2023/12/25 09:42:06;;;;;;;10.73;5.28;;;;;;;;;;6314405;28;20040;-78
2023/12/25 09:45:09;;;;;;;18.15;11.27;;;;;;;;;;6278556;28;20047;-78
2023/12/25 09:48:12;;;;;;;12.73;5.05;;;;;;;;;;6290144;28;20739;-78
2023/12/25 09:51:16;;;;;;;7.47;3.83;;;;;;;;;;6287477;28;20070;-78
2023/12/25 09:54:18;;;;;;;10.13;3.60;;;;;;;;;;6292392;28;20071;-78
2023/12/25 09:57:21;;;;;;;7.80;3.95;;;;;;;;;;6316349;28;20058;-77
2023/12/25 10:00:24;;;;;;;9.32;4.65;;;;;;;;;;6277019;28;20107;-78
2023/12/25 10:03:26;;;;;;;12.77;4.78;;;;;;;;;;6285427;28;20147;-78
2023/12/25 10:06:29;;;;;;;12.07;6.95;;;;;;;;;;6285448;28;20050;-78
2023/12/25 10:09:32;;;;;;;10.35;5.32;;;;;;;;;;6258286;28;20055;-78
2023/12/25 10:12:34;;;;;;;12.02;5.10;;;;;;;;;;6279350;28;20036;-78
2023/12/25 10:15:37;;;;;;;15.18;5.50;;;;;;;;;;6273337;28;20205;-78
2023/12/25 10:18:39;;;;;;;10.52;4.32;;;;;;;;;;6304511;28;20050;-78
2023/12/25 10:21:43;;;;;;;10.48;5.05;;;;;;;;;;6300907;28;20064;-78
2023/12/25 10:24:45;;;;;;;11.43;5.57;;;;;;;;;;6284940;28;20052;-78
2023/12/25 10:27:47;;;;;;;15.65;5.53;;;;;;;;;;6294786;28;20787;-78
2023/12/25 10:31:02;;;;;;;10.65;4.18;;;;;;;;;;6318440;28;20058;-78
2023/12/25 10:34:05;;;;;;;6.40;2.42;;;;;;;;;;6296067;28;20044;-78
2023/12/25 10:37:07;;;;;;;6.30;2.83;;;;;;;;;;6303095;28;20047;-78
2023/12/25 10:40:26;;;;;;;13.85;8.35;;;;;;;;;;6271457;28;20063;-78
2023/12/25 10:43:31;;;;;;;43.25;26.10;;;;;;;;;;6304744;28;20155;-78
2023/12/25 10:46:35;;;;;;;10.70;6.40;;;;;;;;;;6298608;28;20060;-78
2023/12/25 10:49:38;;;;;;;23.05;13.45;;;;;;;;;;6299665;28;20208;-78
2023/12/25 10:52:42;;;;;;;10.55;5.05;;;;;;;;;;6281276;28;20043;-78
2023/12/25 10:55:46;;;;;;;10.55;4.20;;;;;;;;;;6282486;28;20036;-78
2023/12/25 10:58:52;;;;;;;9.57;6.82;;;;;;;;;;6279707;28;20121;-78
2023/12/25 11:01:55;;;;;;;9.20;4.50;;;;;;;;;;6281188;28;20058;-79
2023/12/25 11:04:57;;;;;;;11.43;5.65;;;;;;;;;;6325163;28;20052;-79
2023/12/25 11:08:00;;;;;;;9.23;3.78;;;;;;;;;;6299233;28;20105;-78
2023/12/25 11:11:02;;;;;;;9.93;4.60;;;;;;;;;;6321995;28;20060;-78
2023/12/25 11:14:06;;;;;;;9.45;4.55;;;;;;;;;;6302415;28;20177;-78
2023/12/25 11:17:11;;;;;;;8.48;4.07;;;;;;;;;;6297427;28;20438;-78
2023/12/25 11:20:14;;;;;;;10.52;4.45;;;;;;;;;;6299464;28;20077;-77
2023/12/25 11:23:16;;;;;;;10.00;4.90;;;;;;;;;;6287802;28;20047;-78
2023/12/25 11:26:22;;;;;;;13.80;9.15;;;;;;;;;;6302432;28;20439;-79
2023/12/25 11:29:30;;;;;;;43.78;22.10;;;;;;;;;;6271369;28;20152;-78
2023/12/25 11:32:35;;;;;;;9.82;5.05;;;;;;;;;;6275778;28;20143;-78
2023/12/25 11:35:38;;;;;;;14.30;8.95;;;;;;;;;;6309162;28;20042;-78
2023/12/25 11:38:48;;;;;;;13.38;6.75;;;;;;;;;;6290455;28;20552;-79
2023/12/25 11:41:54;;;;;;;11.95;6.63;;;;;;;;;;6279890;28;20491;-79
2023/12/25 11:45:11;;;;;;;6.28;3.15;;;;;;;;;;6261605;28;20043;-79
2023/12/25 11:48:15;;;;;;;9.48;4.75;;;;;;;;;;6272835;28;20051;-78
2023/12/25 11:51:24;;;;;;;8.70;4.38;;;;;;;;;;6317012;28;20089;-78
2023/12/25 11:54:33;;;;;;;8.30;4.10;;;;;;;;;;6285210;28;20712;-76
2023/12/25 11:57:35;;;;;;;10.98;6.78;;;;;;;;;;6310817;28;20044;-79
2023/12/25 12:00:39;;;;;;;8.73;3.00;;;;;;;;;;6300491;28;20044;-79
2023/12/25 12:03:44;;;;;;;9.27;5.43;;;;;;;;;;6270352;28;20086;-80
2023/12/25 12:06:47;;;;;;;12.65;5.97;;;;;;;;;;6277482;28;20048;-79
2023/12/25 12:09:49;;;;;;;10.05;4.88;;;;;;;;;;6299870;28;20044;-81
2023/12/25 12:12:51;;;;;;;10.02;5.03;;;;;;;;;;6300389;28;20067;-79
2023/12/25 12:15:53;;;;;;;13.77;8.10;;;;;;;;;;6310592;28;20542;-77
2023/12/25 12:18:57;;;;;;;9.10;6.70;;;;;;;;;;6294582;28;20082;-78
2023/12/25 12:22:00;;;;;;;10.50;4.15;;;;;;;;;;6278299;28;20108;-79
2023/12/25 12:25:12;;;;;;;3.25;1.38;;;;;;;;;;6287966;28;20557;-80
2023/12/25 12:28:22;;;;;;;4.50;2.40;;;;;;;;;;6307866;28;20040;-80
2023/12/25 12:31:25;;;;;;;6.05;3.05;;;;;;;;;;6320648;28;20646;-81
2023/12/25 12:34:28;;;;;;;4.72;1.67;;;;;;;;;;6313614;28;20044;-79
2023/12/25 12:37:31;;;;;;;5.95;2.03;;;;;;;;;;6330236;28;20122;-79
2023/12/25 12:40:33;;;;;;;11.60;5.15;;;;;;;;;;6304950;28;20090;-79
2023/12/25 12:43:43;;;;;;;8.27;3.10;;;;;;;;;;6286737;28;20559;-80
2023/12/25 12:46:47;;;;;;;7.88;3.25;;;;;;;;;;6322136;28;20156;-78
2023/12/25 12:49:50;;;;;;;7.82;4.05;;;;;;;;;;6263314;28;20047;-78
2023/12/25 12:52:53;;;;;;;11.95;6.78;;;;;;;;;;6301578;28;20044;-80
2023/12/25 12:55:59;;;;;;;4.00;2.63;;;;;;;;;;6299742;28;20040;-81
2023/12/25 12:59:03;;;;;;;6.88;2.03;;;;;;;;;;6315577;28;20535;-80
2023/12/25 13:02:15;;;;;;;10.18;5.40;;;;;;;;;;6312428;28;20052;-80
2023/12/25 13:05:17;;;;;;;6.90;2.03;;;;;;;;;;6265770;28;20048;-80
2023/12/25 13:08:21;;;;;;;6.88;2.30;;;;;;;;;;6293498;28;20136;-80
2023/12/25 13:11:28;;;;;;;7.03;2.40;;;;;;;;;;6315359;28;20052;-79
2023/12/25 13:14:30;;;;;;;10.82;3.20;;;;;;;;;;6286417;28;20039;-80
2023/12/25 13:17:33;;;;;;;5.97;2.05;;;;;;;;;;6296456;28;20036;-80
2023/12/25 13:20:35;;;;;;;3.97;2.25;;;;;;;;;;6296986;28;20230;-81
2023/12/25 13:23:37;;;;;;;8.77;4.22;;;;;;;;;;6327587;28;20040;-81
2023/12/25 13:26:40;;;;;;;3.05;1.23;;;;;;;;;;6322566;28;20047;-79
2023/12/25 13:29:43;;;;;;;5.55;1.95;;;;;;;;;;6320695;28;20036;-83
2023/12/25 13:32:46;;;;;;;7.75;3.78;;;;;;;;;;6328149;28;20101;-83
2023/12/25 13:35:48;;;;;;;8.15;3.28;;;;;;;;;;6314766;28;20028;-83
2023/12/25 13:38:52;;;;;;;5.15;2.40;;;;;;;;;;6286330;28;20043;-83
2023/12/25 13:41:56;;;;;;;6.13;3.20;;;;;;;;;;6329192;28;20047;-82
2023/12/25 13:45:01;;;;;;;5.63;1.55;;;;;;;;;;6339429;27;20511;-82
2023/12/25 13:48:06;;;;;;;3.13;1.70;;;;;;;;;;6294458;28;20054;-83
2023/12/25 13:51:08;;;;;;;8.77;4.82;;;;;;;;;;6305856;28;20695;-83
2023/12/25 13:54:11;;;;;;;7.80;4.40;;;;;;;;;;6279277;28;20050;-82
2023/12/25 13:57:16;;;;;;;13.80;7.68;;;;;;;;;;6284068;28;20112;-83
2023/12/25 14:00:18;;;;;;;18.75;9.90;;;;;;;;;;6322055;28;20520;-83
2023/12/25 14:03:21;;;;;;;14.48;6.38;;;;;;;;;;6288823;28;20059;-83
2023/12/25 14:06:26;;;;;;;6.20;3.17;;;;;;;;;;6312833;28;20526;-82
2023/12/25 14:09:28;;;;;;;6.53;1.58;;;;;;;;;;6284619;28;20044;-82
2023/12/25 14:12:33;;;;;;;7.18;1.88;;;;;;;;;;6302452;28;20785;-82
2023/12/25 14:15:36;;;;;;;6.82;2.15;;;;;;;;;;6320926;28;20039;-82
2023/12/25 14:18:38;;;;;;;16.95;5.15;;;;;;;;;;6317146;28;20067;-83
2023/12/25 14:21:42;;;;;;;184.27;91.07;;;;;;;;;;6296804;28;20051;-83
2023/12/25 14:24:44;;;;;;;66.28;31.70;;;;;;;;;;6263172;28;20509;-83
2023/12/25 14:27:48;;;;;;;21.75;10.65;;;;;;;;;;6282126;28;20056;-81
2023/12/25 14:30:50;;;;;;;21.58;10.60;;;;;;;;;;6316994;28;20737;-82
2023/12/25 14:33:55;;;;;;;32.35;12.30;;;;;;;;;;6267171;28;20054;-81
2023/12/25 14:36:58;;;;;;;21.45;8.63;;;;;;;;;;6277744;28;20067;-81
2023/12/25 14:40:02;;;;;;;30.17;10.73;;;;;;;;;;6294510;28;20109;-82
2023/12/25 14:43:04;;;;;;;41.90;13.63;;;;;;;;;;6253612;28;20051;-75
2023/12/25 14:46:07;;;;;;;32.35;11.35;;;;;;;;;;6282502;28;20446;-75
2023/12/25 14:49:21;;;;;;;37.70;13.50;;;;;;;;;;6317051;28;20052;-75
2023/12/25 14:52:24;;;;;;;30.63;11.32;;;;;;;;;;6285041;28;20048;-74
2023/12/25 14:55:27;;;;;;;31.20;11.88;;;;;;;;;;6293462;28;20139;-75
2023/12/25 14:58:29;;;;;;;30.42;12.50;;;;;;;;;;6292370;28;20051;-74
2023/12/25 15:01:32;;;;;;;19.02;8.88;;;;;;;;;;6310274;28;20101;-75
2023/12/25 15:04:35;;;;;;;16.58;9.55;;;;;;;;;;6294731;28;20046;-75
2023/12/25 15:07:37;;;;;;;17.25;8.82;;;;;;;;;;6291425;28;20438;-75
2023/12/25 15:10:40;;;;;;;29.38;15.13;;;;;;;;;;6308549;28;20048;-75
2023/12/25 15:13:42;;;;;;;44.00;21.55;;;;;;;;;;6278073;28;20071;-75
2023/12/25 15:16:44;;;;;;;32.90;16.83;;;;;;;;;;6306659;28;20054;-75
2023/12/25 15:19:47;;;;;;;22.48;13.60;;;;;;;;;;6309258;28;20533;-74
2023/12/25 15:23:01;;;;;;;22.80;12.20;;;;;;;;;;6287328;28;20051;-75
2023/12/25 15:26:03;;;;;;;14.25;7.63;;;;;;;;;;6309293;28;20158;-75
2023/12/25 15:29:07;;;;;;;17.95;8.40;;;;;;;;;;6308074;28;20055;-75
2023/12/25 15:32:10;;;;;;;14.38;7.35;;;;;;;;;;6308513;28;20085;-75
2023/12/25 15:35:13;;;;;;;16.30;7.43;;;;;;;;;;6284469;28;20075;-75
2023/12/25 15:38:15;;;;;;;31.35;15.63;;;;;;;;;;6293293;28;20056;-75
2023/12/25 15:41:17;;;;;;;41.42;20.98;;;;;;;;;;6313713;28;20094;-75
2023/12/25 15:44:20;;;;;;;41.97;18.92;;;;;;;;;;6301306;28;20055;-75
2023/12/25 15:47:23;;;;;;;19.80;9.63;;;;;;;;;;6302014;28;20047;-75
2023/12/25 15:50:25;;;;;;;15.93;8.00;;;;;;;;;;6297009;28;20076;-75
2023/12/25 15:53:27;;;;;;;7.57;3.55;;;;;;;;;;6310108;28;20130;-76
2023/12/25 15:56:30;;;;;;;9.63;5.13;;;;;;;;;;6302556;28;20036;-75
2023/12/25 15:59:33;;;;;;;13.02;5.70;;;;;;;;;;6293705;28;20130;-76
2023/12/25 16:02:35;;;;;;;10.43;4.72;;;;;;;;;;6264530;28;20418;-76
2023/12/25 16:05:38;;;;;;;6.72;3.15;;;;;;;;;;6313612;28;20044;-74
2023/12/25 16:08:41;;;;;;;8.20;3.67;;;;;;;;;;6274531;28;20089;-75
2023/12/25 16:11:44;;;;;;;9.55;4.18;;;;;;;;;;6294056;28;20044;-75
2023/12/25 16:14:47;;;;;;;10.27;5.85;;;;;;;;;;6315415;28;20093;-75
2023/12/25 16:17:50;;;;;;;25.33;21.00;;;;;;;;;;6260975;28;20040;-75
2023/12/25 16:20:53;;;;;;;13.25;8.13;;;;;;;;;;6277166;28;20059;-76
2023/12/25 16:23:55;;;;;;;14.48;7.93;;;;;;;;;;6295272;28;20700;-76
2023/12/25 16:26:57;;;;;;;15.68;6.78;;;;;;;;;;6318654;28;20043;-76
2023/12/25 16:29:59;;;;;;;23.25;9.52;;;;;;;;;;6303890;28;20055;-74
2023/12/25 16:33:03;;;;;;;25.45;14.27;;;;;;;;;;6320958;28;20053;-74
2023/12/25 16:36:06;;;;;;;16.77;9.13;;;;;;;;;;6318907;28;20051;-76
2023/12/25 16:39:09;;;;;;;14.23;6.40;;;;;;;;;;6270819;28;20047;-76
2023/12/25 16:42:11;;;;;;;10.27;5.18;;;;;;;;;;6313207;28;20081;-76
2023/12/25 16:45:14;;;;;;;14.75;5.75;;;;;;;;;;6315161;28;20044;-76
2023/12/25 16:48:16;;;;;;;19.50;10.75;;;;;;;;;;6312376;28;20052;-76
2023/12/25 16:51:18;;;;;;;49.00;24.23;;;;;;;;;;6294939;28;20053;-76
2023/12/25 16:54:25;;;;;;;77.90;36.47;;;;;;;;;;6280420;28;20058;-76
2023/12/25 16:57:28;;;;;;;36.83;19.88;;;;;;;;;;6311070;28;20097;-75
2023/12/25 17:00:30;;;;;;;96.72;47.70;;;;;;;;;;6297154;28;20040;-75
2023/12/25 17:03:32;;;;;;;89.90;43.80;;;;;;;;;;6327450;28;20039;-75
2023/12/25 17:06:34;;;;;;;36.85;18.42;;;;;;;;;;6312479;28;20068;-75
2023/12/25 17:09:37;;;;;;;19.40;10.90;;;;;;;;;;6305076;28;20579;-75
2023/12/25 17:12:41;;;;;;;17.30;8.75;;;;;;;;;;6302417;28;20040;-76
2023/12/25 17:15:43;;;;;;;22.00;10.20;;;;;;;;;;6312730;28;20442;-75
2023/12/25 17:18:46;;;;;;;31.63;17.02;;;;;;;;;;6281111;28;20047;-75
2023/12/25 17:21:59;;;;;;;46.58;26.98;;;;;;;;;;6284451;28;20058;-75
2023/12/25 17:25:09;;;;;;;22.35;12.77;;;;;;;;;;6305731;28;20036;-76
2023/12/25 17:28:19;;;;;;;29.75;12.48;;;;;;;;;;6315388;28;20047;-76
2023/12/25 17:31:21;;;;;;;17.45;9.38;;;;;;;;;;6297705;28;20559;-76
2023/12/25 17:34:23;;;;;;;19.70;8.68;;;;;;;;;;6281716;28;20051;-75
2023/12/25 17:37:26;;;;;;;17.48;10.00;;;;;;;;;;6295309;28;20147;-75
2023/12/25 17:40:28;;;;;;;23.45;11.57;;;;;;;;;;6281609;28;20051;-75
2023/12/25 17:43:30;;;;;;;23.35;10.05;;;;;;;;;;6318831;28;20056;-75
2023/12/25 17:46:32;;;;;;;18.80;9.57;;;;;;;;;;6321754;28;20043;-76
2023/12/25 17:49:34;;;;;;;21.85;11.55;;;;;;;;;;6300843;28;20044;-76
2023/12/25 17:52:37;;;;;;;22.52;12.30;;;;;;;;;;6299515;28;20795;-75
2023/12/25 17:55:40;;;;;;;21.33;13.40;;;;;;;;;;6325078;28;20462;-75
2023/12/25 17:58:42;;;;;;;28.25;11.77;;;;;;;;;;6313553;28;20047;-75
2023/12/25 18:01:44;;;;;;;21.63;11.30;;;;;;;;;;6294619;28;20039;-75